Time;durP1;ratioP1;P1;durP2;ratioP2;P2;SDS_P1;SDS_P2;PMS_P1;PMS_P2;Temp;Humidity;BMP_temperature;BMP_pressure;BME280_temperature;BME280_humidity;BME280_pressure;Samples;Min_cycle;Max_cycle;Signal;HPM_P1;HPM_P2
2023/08/17 00:01:50;;;;;;;8.20;4.77;;;;;;;25.26;62.74;97594.53;5122861;27;20185;-70
2023/08/17 00:04:15;;;;;;;5.83;4.50;;;;;;;25.08;62.90;97593.63;5112558;27;20181;-71
2023/08/17 00:06:40;;;;;;;4.73;3.87;;;;;;;25.00;63.33;97596.69;5116271;27;20244;-70
2023/08/17 00:09:06;;;;;;;4.83;4.20;;;;;;;24.99;63.66;97603.13;5124335;27;20714;-70
2023/08/17 00:11:32;;;;;;;5.30;4.20;;;;;;;24.97;63.88;97600.66;5123889;27;20833;-70
2023/08/17 00:13:58;;;;;;;6.80;4.80;;;;;;;24.93;63.57;97602.19;5128593;27;20212;-70
2023/08/17 00:16:23;;;;;;;8.83;5.00;;;;;;;24.89;64.47;97608.25;5111334;27;20544;-70
2023/08/17 00:18:49;;;;;;;10.17;5.87;;;;;;;24.86;64.22;97601.47;5113931;27;20205;-70
2023/08/17 00:21:14;;;;;;;7.53;5.50;;;;;;;24.84;64.53;97595.53;5132205;27;20238;-71
2023/08/17 00:23:40;;;;;;;15.30;5.73;;;;;;;24.84;64.45;97600.91;5092630;28;20184;-69
2023/08/17 00:26:06;;;;;;;9.77;5.63;;;;;;;24.84;64.51;97592.84;5101071;27;20228;-68
2023/08/17 00:28:32;;;;;;;9.00;4.60;;;;;;;24.84;64.79;97595.53;5112761;27;20223;-71
2023/08/17 00:30:57;;;;;;;6.33;4.90;;;;;;;24.83;64.49;97580.50;5116895;27;20188;-71
2023/08/17 00:33:22;;;;;;;9.23;4.90;;;;;;;24.80;64.20;97575.63;5128135;27;20652;-69
2023/08/17 00:35:48;;;;;;;15.30;5.50;;;;;;;24.80;64.17;97583.69;5113755;27;20306;-69
2023/08/17 00:38:13;;;;;;;12.40;6.67;;;;;;;24.71;64.26;97575.19;5140883;27;20270;-71
2023/08/17 00:40:39;;;;;;;7.80;6.57;;;;;;;24.64;64.74;97580.63;5119152;27;20200;-69
2023/08/17 00:43:04;;;;;;;6.63;5.90;;;;;;;24.63;65.02;97570.97;5122008;27;20275;-70
2023/08/17 00:45:30;;;;;;;12.70;7.03;;;;;;;24.56;64.79;97578.31;5120638;27;20199;-70
2023/08/17 00:47:56;;;;;;;14.33;6.63;;;;;;;24.52;64.97;97582.50;5104075;27;20728;-71
2023/08/17 00:50:23;;;;;;;7.53;6.10;;;;;;;24.51;64.97;97570.94;5118860;27;20196;-74
2023/08/17 00:52:48;;;;;;;7.10;5.33;;;;;;;24.49;65.14;97569.56;5121362;27;20431;-73
2023/08/17 00:55:14;;;;;;;12.20;5.97;;;;;;;24.45;65.43;97569.22;5119839;27;20498;-72
2023/08/17 00:57:40;;;;;;;13.10;6.53;;;;;;;24.43;65.34;97563.28;5122800;27;20210;-72
2023/08/17 01:00:07;;;;;;;8.20;6.00;;;;;;;24.43;65.46;97567.84;5117792;27;20570;-71
2023/08/17 01:02:33;;;;;;;11.37;6.33;;;;;;;24.43;65.71;97565.97;5129864;27;20521;-72
2023/08/17 01:04:58;;;;;;;8.77;5.37;;;;;;;24.42;65.89;97555.50;5125612;27;20572;-71
2023/08/17 01:07:23;;;;;;;9.43;5.77;;;;;;;24.43;65.39;97557.13;5112732;27;20224;-74
2023/08/17 01:09:49;;;;;;;8.83;5.97;;;;;;;24.39;65.48;97552.22;5127225;27;20721;-73
2023/08/17 01:12:32;;;;;;;6.40;5.80;;;;;;;24.37;65.20;97564.22;5109839;27;20280;-71
2023/08/17 01:15:06;;;;;;;7.93;5.13;;;;;;;24.37;65.43;97558.88;5130043;27;20195;-72
2023/08/17 01:17:42;;;;;;;10.10;5.40;;;;;;;24.38;65.58;97560.50;5122075;27;20463;-69
2023/08/17 01:20:09;;;;;;;10.10;5.27;;;;;;;24.39;65.14;97570.97;5119402;27;20988;-72
2023/08/17 01:22:35;;;;;;;11.43;5.00;;;;;;;24.33;65.76;97568.41;5120571;27;20433;-70
2023/08/17 01:25:01;;;;;;;13.17;5.83;;;;;;;24.31;65.91;97568.66;5121660;27;20458;-71
2023/08/17 01:27:39;;;;;;;6.47;5.70;;;;;;;24.28;66.08;97569.09;5109361;27;20457;-71
2023/08/17 01:30:05;;;;;;;7.50;5.30;;;;;;;24.27;65.99;97564.78;5101750;27;20217;-70
2023/08/17 01:32:38;;;;;;;7.37;5.20;;;;;;;24.26;66.22;97573.88;5103529;27;20430;-69
2023/08/17 01:35:09;;;;;;;10.07;5.57;;;;;;;24.28;65.97;97562.91;5103366;27;20779;-70
2023/08/17 01:37:37;;;;;;;11.80;6.27;;;;;;;24.23;66.21;97560.94;5097670;27;20515;-72
2023/08/17 01:40:04;;;;;;;6.90;6.30;;;;;;;24.23;66.12;97563.63;5125862;27;21087;-72
2023/08/17 01:42:30;;;;;;;6.20;5.50;;;;;;;24.28;66.73;97563.75;5115445;27;21083;-71
2023/08/17 01:44:56;;;;;;;10.70;5.90;;;;;;;24.27;66.30;97555.94;5096549;27;20441;-71
2023/08/17 01:47:22;;;;;;;6.80;6.10;;;;;;;24.28;66.34;97555.72;5093396;27;20677;-71
2023/08/17 01:49:47;;;;;;;8.23;5.70;;;;;;;24.33;66.60;97547.78;5125772;27;20212;-71
2023/08/17 01:52:13;;;;;;;9.63;6.23;;;;;;;24.25;66.88;97553.50;5125823;27;21053;-73
2023/08/17 01:54:38;;;;;;;8.87;6.33;;;;;;;24.21;66.94;97565.72;5120272;27;20185;-72
2023/08/17 01:57:04;;;;;;;12.60;6.40;;;;;;;24.27;66.85;97561.28;5124492;27;20184;-72
2023/08/17 01:59:29;;;;;;;10.20;6.87;;;;;;;24.26;66.80;97560.47;5129380;27;20208;-73
2023/08/17 02:01:54;;;;;;;10.37;7.37;;;;;;;24.26;66.89;97562.34;5123545;27;20233;-71
2023/08/17 02:04:20;;;;;;;11.40;7.20;;;;;;;24.28;67.33;97552.22;5116377;27;20650;-72
2023/08/17 02:06:45;;;;;;;7.67;6.87;;;;;;;24.29;67.05;97556.53;5119610;27;20231;-73
2023/08/17 02:09:11;;;;;;;8.77;7.00;;;;;;;24.28;67.33;97561.06;5105073;27;20302;-71
2023/08/17 02:11:36;;;;;;;10.57;8.17;;;;;;;24.25;67.04;97553.50;5127599;27;20280;-72
2023/08/17 02:14:02;;;;;;;10.63;7.30;;;;;;;24.26;67.35;97549.78;5126727;27;20872;-73
2023/08/17 02:16:27;;;;;;;11.30;7.73;;;;;;;24.28;67.41;97553.03;5132192;27;20238;-72
2023/08/17 02:18:53;;;;;;;12.03;7.90;;;;;;;24.28;67.69;97545.00;5116267;27;20209;-72
2023/08/17 02:21:18;;;;;;;7.50;6.80;;;;;;;24.28;67.81;97542.31;5121317;27;20189;-72
2023/08/17 02:23:43;;;;;;;10.30;6.20;;;;;;;24.31;67.72;97533.84;5133903;27;20196;-72
2023/08/17 02:26:09;;;;;;;8.37;6.50;;;;;;;24.32;68.08;97532.75;5131115;27;20208;-72
2023/08/17 02:28:35;;;;;;;8.50;7.10;;;;;;;24.31;68.09;97539.19;5107495;27;20672;-73
2023/08/17 02:31:00;;;;;;;7.70;7.10;;;;;;;24.32;68.09;97534.63;5129573;27;20254;-72
2023/08/17 02:33:26;;;;;;;7.87;7.00;;;;;;;24.30;68.24;97526.00;5135134;27;20192;-72
2023/08/17 02:35:52;;;;;;;9.30;7.20;;;;;;;24.30;67.92;97529.53;5124940;27;20824;-73
2023/08/17 02:38:18;;;;;;;8.03;7.03;;;;;;;24.32;68.34;97527.41;5111776;27;20280;-71
2023/08/17 02:40:43;;;;;;;7.80;5.93;;;;;;;24.32;67.99;97532.75;5136333;27;20198;-73
2023/08/17 02:43:08;;;;;;;7.93;6.80;;;;;;;24.32;68.28;97530.09;5131744;27;20193;-72
2023/08/17 02:45:34;;;;;;;7.97;6.80;;;;;;;24.34;67.96;97528.00;5120771;27;20586;-72
2023/08/17 02:48:00;;;;;;;12.63;6.60;;;;;;;24.35;68.03;97528.81;5130565;27;20188;-72
2023/08/17 02:50:25;;;;;;;9.97;7.03;;;;;;;24.32;68.09;97523.94;5127651;27;20268;-71
2023/08/17 02:52:50;;;;;;;11.43;6.50;;;;;;;24.33;68.22;97525.56;5122129;27;20272;-71
2023/08/17 02:55:16;;;;;;;10.23;7.30;;;;;;;24.30;68.34;97515.31;5131282;27;20196;-73
2023/08/17 02:57:41;;;;;;;10.63;7.13;;;;;;;24.29;68.77;97517.19;5131013;27;20188;-72
2023/08/17 03:00:07;;;;;;;7.37;6.57;;;;;;;24.27;68.58;97516.59;5129853;27;20212;-70
2023/08/17 03:02:33;;;;;;;7.33;5.87;;;;;;;24.19;68.44;97506.25;5129012;27;20318;-72
2023/08/17 03:04:58;;;;;;;10.53;6.47;;;;;;;24.19;68.74;97511.59;5119575;27;20660;-72
2023/08/17 03:07:23;;;;;;;16.90;6.70;;;;;;;24.22;68.51;97513.78;5131440;27;20524;-72
2023/08/17 03:09:49;;;;;;;13.57;7.30;;;;;;;24.22;68.31;97503.09;5127753;27;20270;-73
2023/08/17 03:12:14;;;;;;;10.23;6.50;;;;;;;24.26;68.56;97501.56;5122518;27;20185;-73
2023/08/17 03:14:40;;;;;;;8.30;7.50;;;;;;;24.24;68.77;97495.63;5119520;27;20207;-72
2023/08/17 03:17:05;;;;;;;8.20;7.30;;;;;;;24.24;68.56;97501.00;5129384;27;20280;-74
2023/08/17 03:19:31;;;;;;;8.50;7.70;;;;;;;24.24;68.72;97492.97;5133255;27;20235;-73
2023/08/17 03:21:56;;;;;;;8.47;7.57;;;;;;;24.25;68.46;97493.78;5112766;27;20280;-73
2023/08/17 03:24:22;;;;;;;18.10;7.10;;;;;;;24.24;69.04;97495.63;5125862;27;20292;-73
2023/08/17 03:26:47;;;;;;;8.93;8.03;;;;;;;24.27;68.80;97492.50;5123065;27;20204;-71
2023/08/17 03:29:13;;;;;;;10.13;7.07;;;;;;;24.28;68.52;97493.31;5137989;27;20220;-71
2023/08/17 03:31:38;;;;;;;15.10;7.27;;;;;;;24.29;69.07;97484.22;5125418;27;20198;-71
2023/08/17 03:34:04;;;;;;;9.40;7.27;;;;;;;24.27;68.76;97484.47;5129384;27;20211;-71
2023/08/17 03:36:29;;;;;;;11.57;7.90;;;;;;;24.27;68.93;97479.09;5127276;27;20213;-71
2023/08/17 03:38:54;;;;;;;10.57;8.63;;;;;;;24.26;69.08;97493.53;5129651;27;20643;-71
2023/08/17 03:41:23;;;;;;;9.90;7.03;;;;;;;24.23;69.15;97488.66;5125567;27;20274;-72
2023/08/17 03:43:48;;;;;;;10.33;8.33;;;;;;;24.23;69.28;97491.31;5135884;27;20212;-71
2023/08/17 03:46:14;;;;;;;16.40;14.70;;;;;;;24.21;69.15;97493.41;5112808;27;20523;-73
2023/08/17 03:48:39;;;;;;;19.53;14.80;;;;;;;24.18;68.57;97499.25;5126142;27;20209;-73
2023/08/17 03:51:05;;;;;;;14.90;11.67;;;;;;;24.15;68.90;97497.03;5129143;27;20211;-72
2023/08/17 03:53:30;;;;;;;12.27;10.03;;;;;;;24.17;69.18;97498.44;5128662;27;20184;-71
2023/08/17 03:55:56;;;;;;;10.97;9.20;;;;;;;24.19;69.18;97495.53;5129041;27;20285;-73
2023/08/17 03:58:21;;;;;;;10.67;9.00;;;;;;;24.22;69.33;97497.72;5127050;27;20191;-74
2023/08/17 04:00:50;;;;;;;12.47;10.07;;;;;;;24.22;69.48;97508.44;5129213;27;20755;-71
2023/08/17 04:03:16;;;;;;;14.60;10.57;;;;;;;24.24;69.53;97511.69;5126504;27;20192;-71
2023/08/17 04:05:42;;;;;;;15.23;10.57;;;;;;;24.26;69.42;97511.50;5128214;27;20433;-71
2023/08/17 04:08:08;;;;;;;15.33;10.60;;;;;;;24.27;69.12;97510.41;5124255;27;20184;-73
2023/08/17 04:10:33;;;;;;;15.60;10.33;;;;;;;24.24;69.17;97509.03;5127750;27;20180;-73
2023/08/17 04:12:59;;;;;;;13.87;10.40;;;;;;;24.23;69.26;97516.25;5111353;27;20435;-72
2023/08/17 04:15:24;;;;;;;12.90;10.60;;;;;;;24.25;69.63;97517.88;5128427;27;20187;-72
2023/08/17 04:17:50;;;;;;;13.73;12.03;;;;;;;24.27;69.54;97523.81;5134070;27;20180;-71
2023/08/17 04:20:15;;;;;;;20.57;14.10;;;;;;;24.23;69.68;97521.59;5127639;27;20231;-71
2023/08/17 04:22:41;;;;;;;18.37;16.03;;;;;;;24.23;69.42;97523.47;5104527;28;20183;-71
2023/08/17 04:25:07;;;;;;;21.23;15.47;;;;;;;24.22;69.24;97529.84;5128405;27;20233;-71
2023/08/17 04:27:33;;;;;;;18.00;13.30;;;;;;;24.23;69.63;97528.81;5109301;27;20238;-71
2023/08/17 04:29:58;;;;;;;17.53;12.27;;;;;;;24.27;69.50;97531.81;5132489;27;20446;-72
2023/08/17 04:32:23;;;;;;;17.07;12.90;;;;;;;24.30;69.41;97532.19;5125292;27;20193;-71
2023/08/17 04:34:49;;;;;;;16.73;13.20;;;;;;;24.33;69.54;97528.25;5128759;27;20184;-72
2023/08/17 04:37:15;;;;;;;17.63;13.43;;;;;;;24.35;69.70;97529.63;5128610;27;20195;-71
2023/08/17 04:39:43;;;;;;;22.60;15.40;;;;;;;24.35;69.37;97526.94;5124856;27;20207;-71
2023/08/17 04:42:08;;;;;;;20.20;15.80;;;;;;;24.35;69.13;97526.94;5132121;27;20418;-70
2023/08/17 04:44:33;;;;;;;19.20;15.50;;;;;;;24.39;69.22;97528.13;5136217;27;20421;-69
2023/08/17 04:46:59;;;;;;;20.20;15.50;;;;;;;24.38;68.59;97536.41;5120539;27;20707;-70
2023/08/17 04:49:26;;;;;;;21.70;13.50;;;;;;;24.37;69.00;97527.53;5123055;27;20685;-71
2023/08/17 04:51:51;;;;;;;18.63;12.07;;;;;;;24.34;69.05;97532.53;5130254;27;20301;-71
2023/08/17 04:54:17;;;;;;;15.10;10.70;;;;;;;24.34;69.16;97536.03;5123208;27;20501;-71
2023/08/17 04:56:43;;;;;;;13.60;10.73;;;;;;;24.37;69.48;97538.25;5120313;27;20641;-72
2023/08/17 04:59:08;;;;;;;13.87;10.63;;;;;;;24.37;69.81;97543.59;5101799;28;20212;-72
2023/08/17 05:01:35;;;;;;;16.87;12.10;;;;;;;24.33;69.66;97547.78;5105593;27;20806;-71
2023/08/17 05:04:01;;;;;;;15.17;11.90;;;;;;;24.33;69.61;97545.09;5127852;27;20652;-71
2023/08/17 05:06:28;;;;;;;13.47;11.70;;;;;;;24.34;69.82;97546.75;5122246;27;20457;-71
2023/08/17 05:08:53;;;;;;;18.00;11.77;;;;;;;24.31;69.61;97546.41;5110353;27;20209;-71
2023/08/17 05:11:19;;;;;;;17.20;12.23;;;;;;;24.25;69.94;97542.78;5119950;27;20434;-72
2023/08/17 05:13:44;;;;;;;15.80;12.70;;;;;;;24.27;70.00;97551.41;5119088;27;20192;-73
2023/08/17 05:16:10;;;;;;;15.30;12.70;;;;;;;24.31;70.04;97549.06;5120064;27;20704;-72
2023/08/17 05:18:35;;;;;;;20.40;12.00;;;;;;;24.32;70.02;97543.47;5125236;27;20216;-71
2023/08/17 05:21:01;;;;;;;16.33;14.10;;;;;;;24.35;70.37;97550.25;5118830;27;20244;-72
2023/08/17 05:23:26;;;;;;;14.07;12.60;;;;;;;24.36;69.94;97552.69;5118359;27;20184;-71
2023/08/17 05:25:52;;;;;;;16.53;12.93;;;;;;;24.40;69.68;97555.69;5115579;27;20210;-71
2023/08/17 05:28:17;;;;;;;17.43;13.03;;;;;;;24.39;69.46;97554.91;5123158;27;20583;-72
2023/08/17 05:30:43;;;;;;;20.07;14.27;;;;;;;24.43;69.56;97552.56;5114862;27;20196;-72
2023/08/17 05:33:08;;;;;;;18.00;14.80;;;;;;;24.45;69.37;97555.81;5126986;27;20183;-72
2023/08/17 05:35:34;;;;;;;18.33;14.07;;;;;;;24.51;69.37;97559.44;5127200;27;20487;-72
2023/08/17 05:37:59;;;;;;;19.00;15.50;;;;;;;24.51;69.36;97560.22;5133691;27;20184;-73
2023/08/17 05:40:25;;;;;;;19.30;16.20;;;;;;;24.52;68.93;97561.88;5133380;27;20319;-71
2023/08/17 05:42:51;;;;;;;20.10;16.20;;;;;;;24.55;68.98;97555.25;5143863;27;20195;-71
2023/08/17 05:45:16;;;;;;;19.97;17.20;;;;;;;24.58;68.17;97556.63;5138059;27;20271;-71
2023/08/17 05:47:42;;;;;;;17.10;14.77;;;;;;;24.57;68.47;97555.00;5129114;27;20208;-74
2023/08/17 05:50:07;;;;;;;20.80;13.80;;;;;;;24.57;68.24;97549.66;5122228;27;20212;-72
2023/08/17 05:52:33;;;;;;;16.17;14.10;;;;;;;24.51;68.28;97556.75;5134517;27;20191;-72
2023/08/17 05:54:58;;;;;;;15.70;13.73;;;;;;;24.50;67.87;97553.28;5119716;27;20327;-73
2023/08/17 05:57:24;;;;;;;16.60;13.67;;;;;;;24.47;67.96;97556.41;5128590;27;20216;-72
2023/08/17 05:59:49;;;;;;;17.13;15.40;;;;;;;24.47;68.38;97553.75;5109495;27;20258;-72
2023/08/17 06:02:14;;;;;;;19.30;16.40;;;;;;;24.48;67.92;97563.41;5126498;27;20717;-73
2023/08/17 06:04:40;;;;;;;14.53;13.17;;;;;;;24.50;68.13;97557.81;5132434;27;20242;-71
2023/08/17 06:07:06;;;;;;;14.70;9.90;;;;;;;24.56;68.01;97567.59;5126252;27;20659;-72
2023/08/17 06:09:31;;;;;;;16.33;13.50;;;;;;;24.72;68.39;97562.59;5106183;27;20609;-71
2023/08/17 06:11:57;;;;;;;15.40;11.43;;;;;;;24.82;67.93;97563.63;5131636;27;20439;-73
2023/08/17 06:14:22;;;;;;;15.67;13.40;;;;;;;24.87;67.35;97562.91;5137298;27;20328;-72
2023/08/17 06:16:48;;;;;;;13.93;12.40;;;;;;;24.92;66.41;97576.44;5126381;27;20176;-73
2023/08/17 06:19:13;;;;;;;14.80;11.47;;;;;;;24.97;66.16;97567.69;5131229;27;20200;-74
2023/08/17 06:21:39;;;;;;;15.27;13.67;;;;;;;25.05;66.30;97577.22;5129396;27;20279;-72
2023/08/17 06:24:04;;;;;;;17.37;14.43;;;;;;;25.07;66.01;97575.91;5128980;27;20271;-73
2023/08/17 06:26:30;;;;;;;16.13;13.60;;;;;;;25.04;66.17;97578.28;5124936;27;20212;-72
2023/08/17 06:28:56;;;;;;;12.87;10.33;;;;;;;25.13;66.36;97577.66;5130409;27;20207;-71
2023/08/17 06:31:22;;;;;;;19.33;12.60;;;;;;;25.17;65.35;97582.53;5140326;27;20236;-70
2023/08/17 06:33:48;;;;;;;19.23;12.83;;;;;;;25.19;64.99;97575.91;5122306;27;20188;-74
2023/08/17 06:36:16;;;;;;;16.83;12.23;;;;;;;25.26;65.03;97579.25;5120810;27;20470;-73
2023/08/17 06:38:42;;;;;;;13.80;10.87;;;;;;;25.36;64.76;97580.50;5131312;27;20677;-71
2023/08/17 06:41:07;;;;;;;16.03;11.00;;;;;;;25.41;64.44;97572.59;5130084;27;20433;-71
2023/08/17 06:43:33;;;;;;;17.23;11.73;;;;;;;25.51;64.38;97566.59;5133235;27;20426;-71
2023/08/17 06:46:00;;;;;;;11.40;9.20;;;;;;;25.61;64.28;97572.16;5130681;27;20306;-72
2023/08/17 06:48:25;;;;;;;10.60;9.50;;;;;;;25.71;64.17;97572.31;5092727;27;20180;-70
2023/08/17 06:50:51;;;;;;;16.20;11.87;;;;;;;25.81;63.74;97566.34;5127968;27;20475;-74
2023/08/17 06:53:16;;;;;;;15.13;11.23;;;;;;;25.90;63.24;97566.72;5115859;27;20188;-72
2023/08/17 06:55:42;;;;;;;17.00;12.33;;;;;;;25.88;62.83;97569.66;5124884;27;20188;-72
2023/08/17 06:58:07;;;;;;;12.90;11.40;;;;;;;25.95;62.85;97569.50;5116399;27;20193;-72
2023/08/17 07:00:35;;;;;;;12.63;11.10;;;;;;;26.00;62.34;97571.47;5128048;27;20208;-72
2023/08/17 07:03:00;;;;;;;14.30;10.73;;;;;;;26.07;62.24;97569.44;5124196;27;20195;-72
2023/08/17 07:05:26;;;;;;;12.70;9.40;;;;;;;26.25;62.21;97570.25;5134090;27;20431;-71
2023/08/17 07:07:52;;;;;;;20.23;12.57;;;;;;;26.27;60.18;97579.72;5125388;27;20316;-72
2023/08/17 07:10:18;;;;;;;12.47;10.83;;;;;;;26.27;60.73;97570.84;5101977;27;20724;-72
2023/08/17 07:12:44;;;;;;;9.80;8.83;;;;;;;26.36;60.78;97574.72;5121953;27;20429;-73
2023/08/17 07:15:10;;;;;;;13.47;10.57;;;;;;;26.41;60.62;97574.81;5122862;27;20275;-72
2023/08/17 07:17:36;;;;;;;14.60;12.73;;;;;;;26.41;60.10;97574.81;5127422;27;20208;-70
2023/08/17 07:20:03;;;;;;;16.50;12.50;;;;;;;26.25;60.38;97570.25;5115639;27;20219;-71
2023/08/17 07:22:29;;;;;;;13.00;10.43;;;;;;;26.41;60.33;97577.50;5120318;27;20484;-71
2023/08/17 07:24:54;;;;;;;14.33;10.43;;;;;;;26.55;60.08;97580.66;5122682;27;20450;-71
2023/08/17 07:27:20;;;;;;;12.10;9.43;;;;;;;26.68;59.85;97574.94;5130497;27;20245;-71
2023/08/17 07:29:45;;;;;;;13.83;11.70;;;;;;;26.71;59.10;97584.38;5118964;27;20735;-70
2023/08/17 07:32:11;;;;;;;12.27;11.07;;;;;;;26.72;58.98;97580.63;5133479;27;20184;-72
2023/08/17 07:34:36;;;;;;;13.70;12.27;;;;;;;26.59;59.05;97581.00;5113458;27;20238;-70
2023/08/17 07:37:04;;;;;;;12.80;10.40;;;;;;;26.62;59.66;97580.47;5129363;27;20212;-70
2023/08/17 07:39:29;;;;;;;18.37;12.63;;;;;;;26.70;59.80;97577.38;5129811;27;20215;-73
2023/08/17 07:41:55;;;;;;;15.30;13.27;;;;;;;26.83;59.18;97579.75;5124775;27;20466;-73
2023/08/17 07:44:20;;;;;;;13.20;11.80;;;;;;;26.83;58.83;97577.06;5112983;27;20260;-73
2023/08/17 07:46:46;;;;;;;14.80;11.53;;;;;;;27.03;58.75;97581.06;5131977;27;20212;-73
2023/08/17 07:49:11;;;;;;;15.33;9.80;;;;;;;27.30;58.44;97580.28;5117909;27;20200;-71
2023/08/17 07:51:37;;;;;;;12.10;10.90;;;;;;;27.51;56.98;97573.28;5130764;27;20251;-71
2023/08/17 07:54:02;;;;;;;13.30;11.90;;;;;;;27.65;56.92;97575.59;5121997;27;20670;-70
2023/08/17 07:56:28;;;;;;;13.37;9.33;;;;;;;27.75;56.77;97576.47;5122806;27;20204;-72
2023/08/17 07:58:54;;;;;;;12.87;10.47;;;;;;;27.92;56.27;97575.56;5081199;27;20209;-72
2023/08/17 08:01:20;;;;;;;12.73;8.97;;;;;;;28.07;56.07;97565.97;5129127;27;20191;-70
2023/08/17 08:03:45;;;;;;;14.60;9.87;;;;;;;28.22;55.17;97574.22;5123692;27;20210;-70
2023/08/17 08:06:10;;;;;;;12.40;10.47;;;;;;;28.40;55.19;97569.47;5087497;28;20212;-72
2023/08/17 08:08:36;;;;;;;18.70;11.73;;;;;;;28.45;53.73;97569.50;5118032;27;20205;-71
2023/08/17 08:11:04;;;;;;;11.03;9.20;;;;;;;28.60;53.42;97569.63;5127186;27;20271;-72
2023/08/17 08:13:29;;;;;;;11.70;9.97;;;;;;;28.76;53.51;97572.41;5112955;27;20180;-72
2023/08/17 08:15:55;;;;;;;12.73;10.20;;;;;;;28.74;53.30;97561.06;5128209;27;23740;-72
2023/08/17 08:18:20;;;;;;;8.70;7.73;;;;;;;28.86;53.42;97558.97;5117725;27;20189;-71
2023/08/17 08:20:46;;;;;;;10.07;9.07;;;;;;;28.83;53.06;97567.59;5122831;27;20272;-71
2023/08/17 08:23:11;;;;;;;10.07;8.60;;;;;;;28.81;52.53;97558.97;5117000;27;20180;-73
2023/08/17 08:25:36;;;;;;;13.50;8.33;;;;;;;28.96;52.58;97561.72;5133152;27;20310;-75
2023/08/17 08:28:02;;;;;;;13.63;8.40;;;;;;;29.12;52.36;97559.06;5125750;27;20295;-72
2023/08/17 08:30:27;;;;;;;9.40;7.40;;;;;;;29.31;51.80;97561.31;5109504;27;20221;-71
2023/08/17 08:32:55;;;;;;;8.90;8.00;;;;;;;29.46;50.75;97564.06;5125065;27;20275;-72
2023/08/17 08:35:22;;;;;;;11.90;7.03;;;;;;;29.53;50.72;97564.63;5121519;27;20328;-71
2023/08/17 08:37:47;;;;;;;12.00;8.43;;;;;;;29.56;50.52;97565.97;5122162;27;20468;-72
2023/08/17 08:40:14;;;;;;;11.23;8.30;;;;;;;29.63;50.10;97568.41;5124760;27;20490;-73
2023/08/17 08:42:40;;;;;;;9.47;7.50;;;;;;;29.72;49.49;97561.41;5138048;27;20588;-71
2023/08/17 08:45:06;;;;;;;9.90;7.33;;;;;;;29.77;49.44;97561.41;5129724;27;20517;-72
2023/08/17 08:47:34;;;;;;;9.17;6.40;;;;;;;30.06;50.15;97557.38;5130066;27;20755;-72
2023/08/17 08:50:02;;;;;;;12.97;6.60;;;;;;;30.33;49.56;97559.81;5106347;27;20458;-71
2023/08/17 08:52:35;;;;;;;10.50;7.10;;;;;;;30.43;47.54;97559.00;5115312;27;20585;-72
2023/08/17 08:55:21;;;;;;;8.83;6.80;;;;;;;30.61;48.44;97563.03;5119201;27;20453;-73
2023/08/17 08:57:49;;;;;;;7.40;6.67;;;;;;;30.24;47.88;97561.44;5113290;27;20426;-72
2023/08/17 09:00:14;;;;;;;13.90;5.93;;;;;;;30.48;47.39;97567.06;5114183;28;20470;-71
2023/08/17 09:02:41;;;;;;;8.90;5.20;;;;;;;30.73;47.19;97563.53;5105453;28;20423;-76
2023/08/17 09:05:09;;;;;;;7.30;5.07;;;;;;;30.99;46.55;97560.75;5101939;28;20184;-72
2023/08/17 09:07:35;;;;;;;11.60;5.30;;;;;;;31.14;46.40;97556.34;5102760;28;20545;-72
2023/08/17 09:10:03;;;;;;;9.50;5.20;;;;;;;31.16;45.53;97549.59;5114000;27;21557;-71
2023/08/17 09:12:28;;;;;;;10.23;4.90;;;;;;;31.18;45.61;97547.44;5122482;27;20614;-72
2023/08/17 09:14:54;;;;;;;6.70;4.03;;;;;;;31.05;45.34;97548.78;5113262;27;20421;-72
2023/08/17 09:17:26;;;;;;;5.13;4.13;;;;;;;31.27;45.02;97544.13;5120001;27;20621;-72
2023/08/17 09:19:52;;;;;;;4.87;4.40;;;;;;;31.38;45.13;97546.47;5121599;27;20669;-72
2023/08/17 09:22:24;;;;;;;5.17;4.67;;;;;;;31.54;45.20;97543.69;5123930;27;20433;-70
2023/08/17 09:24:50;;;;;;;5.47;4.27;;;;;;;31.75;44.05;97546.28;5135647;27;20255;-74
2023/08/17 09:27:16;;;;;;;5.03;4.30;;;;;;;31.87;43.96;97546.75;5121044;27;20454;-72
2023/08/17 09:29:45;;;;;;;5.13;4.30;;;;;;;32.07;44.10;97550.34;5136882;27;20215;-72
2023/08/17 09:32:13;;;;;;;8.13;4.10;;;;;;;32.28;43.30;97537.47;5131069;27;20453;-72
2023/08/17 09:34:44;;;;;;;4.83;4.10;;;;;;;32.44;42.81;97543.53;5124143;27;20442;-73
2023/08/17 09:37:12;;;;;;;4.67;4.27;;;;;;;32.54;42.92;97537.19;5131778;27;20833;-73
2023/08/17 09:39:37;;;;;;;5.57;4.20;;;;;;;32.65;42.92;97537.88;5126697;27;20604;-72
2023/08/17 09:42:03;;;;;;;6.70;4.70;;;;;;;32.60;42.09;97539.56;5131666;27;20432;-74
2023/08/17 09:44:28;;;;;;;6.80;4.20;;;;;;;32.28;42.41;97542.88;5132937;27;20271;-73
2023/08/17 09:46:56;;;;;;;5.20;4.13;;;;;;;31.70;43.77;97545.22;5131862;27;20242;-73
2023/08/17 09:49:25;;;;;;;7.37;4.10;;;;;;;31.69;44.19;97546.31;5113897;27;20232;-73
2023/08/17 09:51:53;;;;;;;6.10;4.53;;;;;;;32.00;43.97;97546.09;5130416;27;20494;-72
2023/08/17 09:54:23;;;;;;;5.07;4.50;;;;;;;32.29;42.90;97542.59;5129418;27;20427;-72
2023/08/17 09:56:52;;;;;;;6.37;4.40;;;;;;;32.63;42.55;97536.28;5128998;27;20513;-71
2023/08/17 09:59:17;;;;;;;4.37;3.90;;;;;;;32.62;43.03;97540.09;5127044;27;20457;-72
2023/08/17 10:01:43;;;;;;;4.60;4.20;;;;;;;32.43;41.55;97542.72;5121299;27;20995;-72
2023/08/17 10:04:10;;;;;;;3.83;3.53;;;;;;;32.50;41.78;97536.97;5114244;27;20181;-73
2023/08/17 10:06:36;;;;;;;5.83;4.50;;;;;;;32.50;40.90;97536.97;5104376;27;20208;-72
2023/08/17 10:09:02;;;;;;;5.47;4.03;;;;;;;32.61;41.27;97527.63;5111274;27;20449;-74
2023/08/17 10:11:31;;;;;;;4.47;4.03;;;;;;;32.58;41.72;97535.50;5123551;27;20483;-72
2023/08/17 10:14:02;;;;;;;6.20;4.20;;;;;;;32.46;41.33;97533.19;5127930;27;20199;-73
2023/08/17 10:16:59;;;;;;;4.40;4.10;;;;;;;32.32;41.19;97533.88;5138265;27;20506;-71
2023/08/17 10:19:37;;;;;;;6.30;4.20;;;;;;;32.42;41.58;97530.25;5108283;27;20450;-71
2023/08/17 10:22:13;;;;;;;8.30;4.60;;;;;;;32.42;41.16;97537.56;5138642;27;20811;-71
2023/08/17 10:24:39;;;;;;;4.90;4.27;;;;;;;32.50;41.70;97531.53;5107905;27;20897;-71
2023/08/17 10:27:06;;;;;;;4.70;4.20;;;;;;;32.80;40.18;97534.19;5111120;27;20450;-72
2023/08/17 10:29:31;;;;;;;5.10;4.50;;;;;;;33.00;40.03;97519.59;5130635;27;20451;-73
2023/08/17 10:31:57;;;;;;;5.67;4.30;;;;;;;33.34;39.78;97521.28;5118559;27;20434;-71
2023/08/17 10:34:22;;;;;;;5.00;4.60;;;;;;;33.49;38.53;97531.97;5109317;27;20192;-72
2023/08/17 10:36:48;;;;;;;4.90;4.50;;;;;;;33.66;38.61;97523.28;5112962;27;20206;-71
2023/08/17 10:39:21;;;;;;;4.60;4.20;;;;;;;33.80;38.19;97522.53;5109141;27;20291;-72
2023/08/17 10:41:51;;;;;;;7.30;4.30;;;;;;;34.08;37.77;97523.44;5131697;27;20183;-72
2023/08/17 10:44:45;;;;;;;4.87;4.47;;;;;;;34.35;37.29;97512.88;5109364;27;20410;-72
2023/08/17 10:47:25;;;;;;;6.23;4.60;;;;;;;34.38;36.74;97521.25;5102742;27;20538;-72
2023/08/17 10:50:07;;;;;;;5.50;4.00;;;;;;;34.53;37.62;97524.84;5114940;27;20545;-75
2023/08/17 10:52:37;;;;;;;6.63;4.17;;;;;;;34.68;37.16;97529.16;5106083;27;20430;-73
2023/08/17 10:55:07;;;;;;;6.40;4.47;;;;;;;34.85;36.85;97518.44;5121692;27;20989;-72
2023/08/17 10:57:37;;;;;;;8.50;4.50;;;;;;;34.90;36.70;97509.41;5122716;27;20492;-73
2023/08/17 11:00:13;;;;;;;7.20;4.63;;;;;;;34.64;36.28;97517.25;5126517;27;20441;-72
2023/08/17 11:02:39;;;;;;;5.63;4.10;;;;;;;34.69;36.98;97509.78;5091811;28;20804;-73
2023/08/17 11:05:07;;;;;;;4.93;4.10;;;;;;;34.79;36.56;97516.97;5112695;27;20828;-72
2023/08/17 11:07:45;;;;;;;5.47;4.30;;;;;;;34.93;36.57;97519.69;5121870;27;20502;-71
2023/08/17 11:10:19;;;;;;;5.53;4.23;;;;;;;34.97;36.82;97515.25;5123620;27;20442;-71
2023/08/17 11:12:45;;;;;;;4.40;4.00;;;;;;;34.92;36.12;97518.06;5118539;27;20447;-72
2023/08/17 11:15:10;;;;;;;6.33;4.03;;;;;;;34.98;35.44;97510.59;5124701;27;20415;-71
2023/08/17 11:17:36;;;;;;;6.60;4.27;;;;;;;34.53;35.71;97509.31;5123905;27;20214;-72
2023/08/17 11:20:02;;;;;;;4.60;4.20;;;;;;;34.73;35.86;97502.66;5124463;27;20226;-72
2023/08/17 11:22:27;;;;;;;4.93;4.40;;;;;;;35.02;35.88;97496.09;5130470;27;20603;-72
2023/08/17 11:24:53;;;;;;;5.03;4.27;;;;;;;35.09;36.03;97500.31;5129107;27;20602;-72